ENOV/HOV METAR and TAF weather

Enter ICAO airport designator
Station Type Date Time Source
ENOV METAR 2019/05/25 08:50 UTC NOAA

ENOV 250850Z VRB02KT 9999 FEW025 BKN035 10/03 Q1009 RMK WIND 2175FT 27007KT


Station Type Date Time Source
ENOV Decoded METAR 2019/05/25 08:50 UTC NOAA

Orsta-Volda / Hovden, Norway (ENOV) 62-11N 006-04E 74M
May 25, 2019 - 04:50 AM EDT / 2019.05.25 0850 UTC
Wind: Variable at 2 MPH (2 KT):0
Visibility: greater than 7 mile(s):0
Sky conditions: mostly cloudy
Temperature: 50 F (10 C)
Dew Point: 37 F (3 C)
Relative Humidity: 61%
Pressure (altimeter): 29.80 in. Hg (1009 hPa)
ob: ENOV 250850Z VRB02KT 9999 FEW025 BKN035 10/03 Q1009 RMK WIND 2175FT 27007KT
cycle: 9

Station Type Date Time Source
ENOV TAF UTC NOAA

Error!

Example: see airport list